sensor_id;sensor_type;location;lat;lon;timestamp;P1;durP1;ratioP1;P2;durP2;ratioP2
9076;SDS011;4574;51.072;17.174;2022-12-07T00:01:45;9.47;;;6.97;;
9076;SDS011;4574;51.072;17.174;2022-12-07T00:04:16;9.30;;;6.30;;
9076;SDS011;4574;51.072;17.174;2022-12-07T00:06:46;7.47;;;5.50;;
9076;SDS011;4574;51.072;17.174;2022-12-07T00:09:18;8.33;;;6.30;;
9076;SDS011;4574;51.072;17.174;2022-12-07T00:11:48;8.33;;;5.87;;
9076;SDS011;4574;51.072;17.174;2022-12-07T00:14:19;7.80;;;6.20;;
9076;SDS011;4574;51.072;17.174;2022-12-07T00:16:49;10.77;;;6.53;;
9076;SDS011;4574;51.072;17.174;2022-12-07T00:19:19;8.53;;;5.83;;
9076;SDS011;4574;51.072;17.174;2022-12-07T00:21:47;8.03;;;6.23;;
9076;SDS011;4574;51.072;17.174;2022-12-07T00:24:16;8.37;;;6.50;;
9076;SDS011;4574;51.072;17.174;2022-12-07T00:26:44;8.27;;;5.90;;
9076;SDS011;4574;51.072;17.174;2022-12-07T00:29:15;6.93;;;5.73;;
9076;SDS011;4574;51.072;17.174;2022-12-07T00:31:45;8.93;;;5.70;;
9076;SDS011;4574;51.072;17.174;2022-12-07T00:34:14;7.07;;;5.80;;
9076;SDS011;4574;51.072;17.174;2022-12-07T00:36:44;6.57;;;5.10;;
9076;SDS011;4574;51.072;17.174;2022-12-07T00:39:13;6.27;;;4.87;;
9076;SDS011;4574;51.072;17.174;2022-12-07T00:41:42;7.80;;;5.20;;
9076;SDS011;4574;51.072;17.174;2022-12-07T00:44:10;5.73;;;4.13;;
9076;SDS011;4574;51.072;17.174;2022-12-07T00:46:39;6.00;;;4.10;;
9076;SDS011;4574;51.072;17.174;2022-12-07T00:49:08;4.50;;;3.67;;
9076;SDS011;4574;51.072;17.174;2022-12-07T00:51:37;4.63;;;3.60;;
9076;SDS011;4574;51.072;17.174;2022-12-07T00:54:05;4.17;;;3.47;;
9076;SDS011;4574;51.072;17.174;2022-12-07T00:56:34;4.87;;;3.77;;
9076;SDS011;4574;51.072;17.174;2022-12-07T00:59:03;4.47;;;3.13;;
9076;SDS011;4574;51.072;17.174;2022-12-07T01:01:32;4.83;;;3.37;;
9076;SDS011;4574;51.072;17.174;2022-12-07T01:04:02;3.33;;;2.90;;
9076;SDS011;4574;51.072;17.174;2022-12-07T01:06:32;3.40;;;3.10;;
9076;SDS011;4574;51.072;17.174;2022-12-07T01:09:01;4.47;;;3.30;;
9076;SDS011;4574;51.072;17.174;2022-12-07T01:11:31;3.57;;;3.17;;
9076;SDS011;4574;51.072;17.174;2022-12-07T01:14:00;3.97;;;2.90;;
9076;SDS011;4574;51.072;17.174;2022-12-07T01:16:29;3.47;;;3.10;;
9076;SDS011;4574;51.072;17.174;2022-12-07T01:18:59;3.20;;;2.83;;
9076;SDS011;4574;51.072;17.174;2022-12-07T01:21:33;3.20;;;2.90;;
9076;SDS011;4574;51.072;17.174;2022-12-07T01:24:04;3.33;;;3.00;;
9076;SDS011;4574;51.072;17.174;2022-12-07T01:26:34;3.00;;;2.60;;
9076;SDS011;4574;51.072;17.174;2022-12-07T01:29:03;2.70;;;2.50;;
9076;SDS011;4574;51.072;17.174;2022-12-07T01:31:31;4.70;;;2.90;;
9076;SDS011;4574;51.072;17.174;2022-12-07T01:34:00;3.67;;;2.60;;
9076;SDS011;4574;51.072;17.174;2022-12-07T01:36:29;3.30;;;2.87;;
9076;SDS011;4574;51.072;17.174;2022-12-07T01:39:01;3.30;;;2.90;;
9076;SDS011;4574;51.072;17.174;2022-12-07T01:41:32;3.30;;;2.70;;
9076;SDS011;4574;51.072;17.174;2022-12-07T01:44:11;3.47;;;2.70;;
9076;SDS011;4574;51.072;17.174;2022-12-07T01:46:44;3.70;;;2.80;;
9076;SDS011;4574;51.072;17.174;2022-12-07T01:49:20;3.33;;;3.00;;
9076;SDS011;4574;51.072;17.174;2022-12-07T01:51:55;3.73;;;2.47;;
9076;SDS011;4574;51.072;17.174;2022-12-07T01:54:30;2.90;;;2.67;;
9076;SDS011;4574;51.072;17.174;2022-12-07T01:56:59;4.17;;;2.70;;
9076;SDS011;4574;51.072;17.174;2022-12-07T01:59:28;3.37;;;2.80;;
9076;SDS011;4574;51.072;17.174;2022-12-07T02:01:57;2.70;;;2.50;;
9076;SDS011;4574;51.072;17.174;2022-12-07T02:04:25;3.47;;;2.67;;
9076;SDS011;4574;51.072;17.174;2022-12-07T02:06:54;3.37;;;2.63;;
9076;SDS011;4574;51.072;17.174;2022-12-07T02:09:23;2.80;;;2.20;;
9076;SDS011;4574;51.072;17.174;2022-12-07T02:11:53;2.47;;;2.27;;
9076;SDS011;4574;51.072;17.174;2022-12-07T02:14:23;2.77;;;2.03;;
9076;SDS011;4574;51.072;17.174;2022-12-07T02:16:54;2.30;;;2.10;;
9076;SDS011;4574;51.072;17.174;2022-12-07T02:25:32;2.33;;;2.13;;
9076;SDS011;4574;51.072;17.174;2022-12-07T02:28:12;3.07;;;2.30;;
9076;SDS011;4574;51.072;17.174;2022-12-07T02:30:53;2.33;;;2.13;;
9076;SDS011;4574;51.072;17.174;2022-12-07T02:33:27;1.83;;;1.73;;
9076;SDS011;4574;51.072;17.174;2022-12-07T02:36:01;2.17;;;1.97;;
9076;SDS011;4574;51.072;17.174;2022-12-07T02:38:37;2.10;;;2.00;;
9076;SDS011;4574;51.072;17.174;2022-12-07T02:41:12;2.40;;;2.00;;
9076;SDS011;4574;51.072;17.174;2022-12-07T02:43:46;3.10;;;2.50;;
9076;SDS011;4574;51.072;17.174;2022-12-07T02:46:21;3.13;;;2.03;;
9076;SDS011;4574;51.072;17.174;2022-12-07T02:48:53;1.93;;;1.80;;
9076;SDS011;4574;51.072;17.174;2022-12-07T02:51:27;2.80;;;1.90;;
9076;SDS011;4574;51.072;17.174;2022-12-07T02:53:58;2.10;;;1.90;;
9076;SDS011;4574;51.072;17.174;2022-12-07T02:56:35;1.80;;;1.70;;
9076;SDS011;4574;51.072;17.174;2022-12-07T02:59:14;1.77;;;1.67;;
9076;SDS011;4574;51.072;17.174;2022-12-07T03:01:55;3.07;;;1.93;;
9076;SDS011;4574;51.072;17.174;2022-12-07T03:04:40;2.00;;;1.80;;
9076;SDS011;4574;51.072;17.174;2022-12-07T03:07:15;1.60;;;1.50;;
9076;SDS011;4574;51.072;17.174;2022-12-07T03:09:53;1.90;;;1.70;;
9076;SDS011;4574;51.072;17.174;2022-12-07T03:12:32;2.00;;;1.80;;
9076;SDS011;4574;51.072;17.174;2022-12-07T03:15:12;1.80;;;1.70;;
9076;SDS011;4574;51.072;17.174;2022-12-07T03:17:47;2.77;;;2.10;;
9076;SDS011;4574;51.072;17.174;2022-12-07T03:20:19;2.63;;;1.90;;
9076;SDS011;4574;51.072;17.174;2022-12-07T03:22:51;2.10;;;1.90;;
9076;SDS011;4574;51.072;17.174;2022-12-07T03:25:21;2.00;;;1.87;;
9076;SDS011;4574;51.072;17.174;2022-12-07T03:27:52;3.10;;;2.47;;
9076;SDS011;4574;51.072;17.174;2022-12-07T03:30:24;2.00;;;1.90;;
9076;SDS011;4574;51.072;17.174;2022-12-07T03:32:59;2.70;;;2.00;;
9076;SDS011;4574;51.072;17.174;2022-12-07T03:35:31;2.47;;;2.27;;
9076;SDS011;4574;51.072;17.174;2022-12-07T03:38:07;2.27;;;2.07;;
9076;SDS011;4574;51.072;17.174;2022-12-07T03:40:43;3.27;;;2.33;;
9076;SDS011;4574;51.072;17.174;2022-12-07T03:43:17;2.17;;;1.97;;
9076;SDS011;4574;51.072;17.174;2022-12-07T03:45:49;2.60;;;2.30;;
9076;SDS011;4574;51.072;17.174;2022-12-07T03:48:27;2.50;;;2.23;;
9076;SDS011;4574;51.072;17.174;2022-12-07T03:51:06;2.37;;;2.20;;
9076;SDS011;4574;51.072;17.174;2022-12-07T03:53:42;2.43;;;2.23;;
9076;SDS011;4574;51.072;17.174;2022-12-07T03:56:17;3.50;;;2.37;;
9076;SDS011;4574;51.072;17.174;2022-12-07T03:58:46;2.50;;;2.30;;
9076;SDS011;4574;51.072;17.174;2022-12-07T04:01:17;2.43;;;2.23;;
9076;SDS011;4574;51.072;17.174;2022-12-07T04:03:47;2.63;;;2.43;;
9076;SDS011;4574;51.072;17.174;2022-12-07T04:06:15;2.67;;;2.20;;
9076;SDS011;4574;51.072;17.174;2022-12-07T04:08:44;2.37;;;2.17;;
9076;SDS011;4574;51.072;17.174;2022-12-07T04:11:13;2.10;;;1.90;;
9076;SDS011;4574;51.072;17.174;2022-12-07T04:13:41;2.00;;;1.90;;
9076;SDS011;4574;51.072;17.174;2022-12-07T04:16:27;2.27;;;2.07;;
9076;SDS011;4574;51.072;17.174;2022-12-07T04:18:57;2.50;;;2.30;;
9076;SDS011;4574;51.072;17.174;2022-12-07T04:21:26;2.20;;;2.00;;
9076;SDS011;4574;51.072;17.174;2022-12-07T04:23:54;2.07;;;1.80;;
9076;SDS011;4574;51.072;17.174;2022-12-07T04:26:23;2.43;;;2.17;;
9076;SDS011;4574;51.072;17.174;2022-12-07T04:28:51;2.37;;;2.17;;
9076;SDS011;4574;51.072;17.174;2022-12-07T04:31:19;2.30;;;2.10;;
9076;SDS011;4574;51.072;17.174;2022-12-07T04:33:48;2.07;;;1.90;;
9076;SDS011;4574;51.072;17.174;2022-12-07T04:36:18;2.80;;;2.00;;
9076;SDS011;4574;51.072;17.174;2022-12-07T04:38:47;2.23;;;2.03;;
9076;SDS011;4574;51.072;17.174;2022-12-07T04:41:15;1.90;;;1.80;;
9076;SDS011;4574;51.072;17.174;2022-12-07T04:43:44;1.83;;;1.73;;
9076;SDS011;4574;51.072;17.174;2022-12-07T04:46:13;2.03;;;1.93;;
9076;SDS011;4574;51.072;17.174;2022-12-07T04:48:41;2.17;;;1.73;;
9076;SDS011;4574;51.072;17.174;2022-12-07T04:51:10;1.90;;;1.80;;
9076;SDS011;4574;51.072;17.174;2022-12-07T04:53:39;2.03;;;1.87;;
9076;SDS011;4574;51.072;17.174;2022-12-07T04:56:08;1.97;;;1.87;;
9076;SDS011;4574;51.072;17.174;2022-12-07T04:58:37;1.83;;;1.73;;
9076;SDS011;4574;51.072;17.174;2022-12-07T05:01:05;3.37;;;1.93;;
9076;SDS011;4574;51.072;17.174;2022-12-07T05:03:34;1.90;;;1.80;;
9076;SDS011;4574;51.072;17.174;2022-12-07T05:06:03;2.10;;;2.00;;
9076;SDS011;4574;51.072;17.174;2022-12-07T05:08:40;2.80;;;2.33;;
9076;SDS011;4574;51.072;17.174;2022-12-07T05:11:08;2.27;;;2.07;;
9076;SDS011;4574;51.072;17.174;2022-12-07T05:13:57;2.40;;;2.20;;
9076;SDS011;4574;51.072;17.174;2022-12-07T05:16:26;2.03;;;1.93;;
9076;SDS011;4574;51.072;17.174;2022-12-07T05:18:55;2.40;;;2.20;;
9076;SDS011;4574;51.072;17.174;2022-12-07T05:21:24;2.90;;;2.53;;
9076;SDS011;4574;51.072;17.174;2022-12-07T05:23:54;3.13;;;2.80;;
9076;SDS011;4574;51.072;17.174;2022-12-07T05:26:22;2.67;;;2.37;;
9076;SDS011;4574;51.072;17.174;2022-12-07T05:28:51;2.53;;;2.33;;
9076;SDS011;4574;51.072;17.174;2022-12-07T05:31:20;3.23;;;2.93;;
9076;SDS011;4574;51.072;17.174;2022-12-07T05:33:49;3.17;;;2.87;;
9076;SDS011;4574;51.072;17.174;2022-12-07T05:36:18;3.80;;;3.03;;
9076;SDS011;4574;51.072;17.174;2022-12-07T05:38:46;3.47;;;2.50;;
9076;SDS011;4574;51.072;17.174;2022-12-07T05:41:17;3.10;;;2.80;;
9076;SDS011;4574;51.072;17.174;2022-12-07T05:44:04;4.20;;;3.27;;
9076;SDS011;4574;51.072;17.174;2022-12-07T05:46:34;3.53;;;3.10;;
9076;SDS011;4574;51.072;17.174;2022-12-07T05:49:02;5.10;;;3.50;;
9076;SDS011;4574;51.072;17.174;2022-12-07T05:51:31;3.90;;;3.27;;
9076;SDS011;4574;51.072;17.174;2022-12-07T05:53:59;4.87;;;4.03;;
9076;SDS011;4574;51.072;17.174;2022-12-07T05:56:29;4.73;;;4.07;;
9076;SDS011;4574;51.072;17.174;2022-12-07T05:58:58;5.57;;;4.20;;
9076;SDS011;4574;51.072;17.174;2022-12-07T06:01:43;5.57;;;4.63;;
9076;SDS011;4574;51.072;17.174;2022-12-07T06:04:12;5.90;;;4.63;;
9076;SDS011;4574;51.072;17.174;2022-12-07T06:06:40;7.73;;;5.40;;
9076;SDS011;4574;51.072;17.174;2022-12-07T06:09:09;5.67;;;4.23;;
9076;SDS011;4574;51.072;17.174;2022-12-07T06:11:40;8.43;;;5.83;;
9076;SDS011;4574;51.072;17.174;2022-12-07T06:14:26;10.27;;;6.33;;
9076;SDS011;4574;51.072;17.174;2022-12-07T06:16:54;8.87;;;6.53;;
9076;SDS011;4574;51.072;17.174;2022-12-07T06:19:23;12.00;;;7.37;;
9076;SDS011;4574;51.072;17.174;2022-12-07T06:21:52;11.70;;;7.33;;
9076;SDS011;4574;51.072;17.174;2022-12-07T06:24:20;12.17;;;7.60;;
9076;SDS011;4574;51.072;17.174;2022-12-07T06:26:51;10.70;;;7.20;;
9076;SDS011;4574;51.072;17.174;2022-12-07T06:29:19;10.80;;;7.67;;
9076;SDS011;4574;51.072;17.174;2022-12-07T06:31:48;9.93;;;7.83;;
9076;SDS011;4574;51.072;17.174;2022-12-07T06:34:18;12.83;;;8.60;;
9076;SDS011;4574;51.072;17.174;2022-12-07T06:36:49;14.10;;;8.77;;
9076;SDS011;4574;51.072;17.174;2022-12-07T06:39:20;13.17;;;8.37;;
9076;SDS011;4574;51.072;17.174;2022-12-07T06:41:53;12.47;;;8.03;;
9076;SDS011;4574;51.072;17.174;2022-12-07T06:44:21;13.60;;;9.17;;
9076;SDS011;4574;51.072;17.174;2022-12-07T06:46:51;13.23;;;8.83;;
9076;SDS011;4574;51.072;17.174;2022-12-07T06:49:40;14.50;;;9.83;;
9076;SDS011;4574;51.072;17.174;2022-12-07T06:52:08;12.67;;;8.23;;
9076;SDS011;4574;51.072;17.174;2022-12-07T06:54:37;14.07;;;9.53;;
9076;SDS011;4574;51.072;17.174;2022-12-07T06:57:07;13.97;;;8.73;;
9076;SDS011;4574;51.072;17.174;2022-12-07T06:59:35;13.53;;;9.37;;
9076;SDS011;4574;51.072;17.174;2022-12-07T07:02:03;12.20;;;9.13;;
9076;SDS011;4574;51.072;17.174;2022-12-07T07:04:32;13.10;;;8.77;;
9076;SDS011;4574;51.072;17.174;2022-12-07T07:07:01;14.30;;;8.90;;
9076;SDS011;4574;51.072;17.174;2022-12-07T07:09:29;14.00;;;8.80;;
9076;SDS011;4574;51.072;17.174;2022-12-07T07:11:57;12.30;;;8.43;;
9076;SDS011;4574;51.072;17.174;2022-12-07T07:14:27;15.50;;;9.17;;
9076;SDS011;4574;51.072;17.174;2022-12-07T07:16:56;14.10;;;9.17;;
9076;SDS011;4574;51.072;17.174;2022-12-07T07:19:25;16.07;;;9.53;;
9076;SDS011;4574;51.072;17.174;2022-12-07T07:21:53;12.13;;;8.67;;
9076;SDS011;4574;51.072;17.174;2022-12-07T07:24:21;15.57;;;9.53;;
9076;SDS011;4574;51.072;17.174;2022-12-07T07:26:50;14.90;;;9.13;;
9076;SDS011;4574;51.072;17.174;2022-12-07T07:29:18;11.57;;;8.53;;
9076;SDS011;4574;51.072;17.174;2022-12-07T07:31:48;15.93;;;9.77;;
9076;SDS011;4574;51.072;17.174;2022-12-07T07:34:17;13.10;;;8.47;;
9076;SDS011;4574;51.072;17.174;2022-12-07T07:36:45;13.83;;;9.10;;
9076;SDS011;4574;51.072;17.174;2022-12-07T07:39:14;14.17;;;9.73;;
9076;SDS011;4574;51.072;17.174;2022-12-07T07:41:42;12.70;;;8.63;;
9076;SDS011;4574;51.072;17.174;2022-12-07T07:44:11;15.47;;;8.70;;
9076;SDS011;4574;51.072;17.174;2022-12-07T07:46:40;12.97;;;8.47;;
9076;SDS011;4574;51.072;17.174;2022-12-07T07:49:10;13.10;;;9.07;;
9076;SDS011;4574;51.072;17.174;2022-12-07T07:51:38;12.17;;;8.50;;
9076;SDS011;4574;51.072;17.174;2022-12-07T07:54:07;12.87;;;8.60;;
9076;SDS011;4574;51.072;17.174;2022-12-07T07:56:35;12.20;;;8.43;;
9076;SDS011;4574;51.072;17.174;2022-12-07T07:59:04;12.97;;;8.70;;
9076;SDS011;4574;51.072;17.174;2022-12-07T08:01:32;11.17;;;8.00;;
9076;SDS011;4574;51.072;17.174;2022-12-07T08:04:01;11.03;;;7.93;;
9076;SDS011;4574;51.072;17.174;2022-12-07T08:06:30;12.30;;;8.37;;
9076;SDS011;4574;51.072;17.174;2022-12-07T08:09:00;13.57;;;8.57;;
9076;SDS011;4574;51.072;17.174;2022-12-07T08:11:29;14.10;;;8.87;;
9076;SDS011;4574;51.072;17.174;2022-12-07T08:13:58;12.23;;;8.17;;
9076;SDS011;4574;51.072;17.174;2022-12-07T08:16:26;12.83;;;8.03;;
9076;SDS011;4574;51.072;17.174;2022-12-07T08:18:55;10.90;;;8.23;;
9076;SDS011;4574;51.072;17.174;2022-12-07T08:21:23;12.40;;;8.47;;
9076;SDS011;4574;51.072;17.174;2022-12-07T08:23:53;12.03;;;8.60;;
9076;SDS011;4574;51.072;17.174;2022-12-07T08:26:22;12.47;;;8.93;;
9076;SDS011;4574;51.072;17.174;2022-12-07T08:28:50;13.50;;;8.40;;
9076;SDS011;4574;51.072;17.174;2022-12-07T08:31:20;13.33;;;8.27;;
9076;SDS011;4574;51.072;17.174;2022-12-07T08:33:49;12.37;;;8.10;;
9076;SDS011;4574;51.072;17.174;2022-12-07T08:36:17;12.27;;;8.47;;
9076;SDS011;4574;51.072;17.174;2022-12-07T08:38:45;15.17;;;8.33;;
9076;SDS011;4574;51.072;17.174;2022-12-07T08:41:35;13.87;;;8.80;;
9076;SDS011;4574;51.072;17.174;2022-12-07T08:44:04;11.83;;;8.63;;
9076;SDS011;4574;51.072;17.174;2022-12-07T08:46:33;12.50;;;8.20;;
9076;SDS011;4574;51.072;17.174;2022-12-07T08:49:06;11.80;;;8.23;;
9076;SDS011;4574;51.072;17.174;2022-12-07T08:51:40;11.33;;;8.63;;
9076;SDS011;4574;51.072;17.174;2022-12-07T08:54:10;12.27;;;8.40;;
9076;SDS011;4574;51.072;17.174;2022-12-07T08:56:42;14.30;;;9.03;;
9076;SDS011;4574;51.072;17.174;2022-12-07T08:59:14;13.13;;;9.60;;
9076;SDS011;4574;51.072;17.174;2022-12-07T09:01:46;11.67;;;8.77;;
9076;SDS011;4574;51.072;17.174;2022-12-07T09:04:14;12.93;;;8.93;;
9076;SDS011;4574;51.072;17.174;2022-12-07T09:06:43;13.73;;;8.90;;
9076;SDS011;4574;51.072;17.174;2022-12-07T09:09:12;12.80;;;8.80;;
9076;SDS011;4574;51.072;17.174;2022-12-07T09:11:43;11.80;;;8.50;;
9076;SDS011;4574;51.072;17.174;2022-12-07T09:14:12;13.30;;;8.53;;
9076;SDS011;4574;51.072;17.174;2022-12-07T09:16:41;11.67;;;7.83;;
9076;SDS011;4574;51.072;17.174;2022-12-07T09:19:10;11.83;;;8.50;;
9076;SDS011;4574;51.072;17.174;2022-12-07T09:21:38;11.00;;;7.80;;
9076;SDS011;4574;51.072;17.174;2022-12-07T09:24:07;10.87;;;8.07;;
9076;SDS011;4574;51.072;17.174;2022-12-07T09:26:35;12.17;;;8.43;;
9076;SDS011;4574;51.072;17.174;2022-12-07T09:29:07;11.27;;;8.10;;
9076;SDS011;4574;51.072;17.174;2022-12-07T09:31:36;7.87;;;6.20;;
9076;SDS011;4574;51.072;17.174;2022-12-07T09:34:05;8.40;;;6.03;;
9076;SDS011;4574;51.072;17.174;2022-12-07T09:36:33;8.03;;;6.03;;
9076;SDS011;4574;51.072;17.174;2022-12-07T09:39:02;8.67;;;6.07;;
9076;SDS011;4574;51.072;17.174;2022-12-07T09:41:32;7.43;;;5.93;;
9076;SDS011;4574;51.072;17.174;2022-12-07T09:44:03;8.67;;;6.27;;
9076;SDS011;4574;51.072;17.174;2022-12-07T09:46:36;11.13;;;6.40;;
9076;SDS011;4574;51.072;17.174;2022-12-07T09:49:09;9.07;;;6.67;;
9076;SDS011;4574;51.072;17.174;2022-12-07T09:51:42;8.70;;;5.87;;
9076;SDS011;4574;51.072;17.174;2022-12-07T09:54:12;8.53;;;5.50;;
9076;SDS011;4574;51.072;17.174;2022-12-07T09:56:42;7.63;;;5.50;;
9076;SDS011;4574;51.072;17.174;2022-12-07T09:59:13;9.17;;;5.40;;
9076;SDS011;4574;51.072;17.174;2022-12-07T10:01:47;8.60;;;6.00;;
9076;SDS011;4574;51.072;17.174;2022-12-07T10:04:18;8.00;;;6.07;;
9076;SDS011;4574;51.072;17.174;2022-12-07T10:06:49;8.70;;;5.53;;
9076;SDS011;4574;51.072;17.174;2022-12-07T10:09:18;6.67;;;5.33;;
9076;SDS011;4574;51.072;17.174;2022-12-07T10:12:04;6.30;;;5.43;;
9076;SDS011;4574;51.072;17.174;2022-12-07T10:14:36;7.17;;;5.70;;
9076;SDS011;4574;51.072;17.174;2022-12-07T10:17:30;6.57;;;5.37;;
9076;SDS011;4574;51.072;17.174;2022-12-07T10:20:14;8.83;;;5.50;;
9076;SDS011;4574;51.072;17.174;2022-12-07T10:23:02;10.13;;;6.50;;
9076;SDS011;4574;51.072;17.174;2022-12-07T10:25:32;11.00;;;6.27;;
9076;SDS011;4574;51.072;17.174;2022-12-07T10:28:12;9.90;;;7.43;;
9076;SDS011;4574;51.072;17.174;2022-12-07T10:30:47;8.47;;;6.47;;
9076;SDS011;4574;51.072;17.174;2022-12-07T10:33:34;9.73;;;6.30;;
9076;SDS011;4574;51.072;17.174;2022-12-07T10:36:18;9.20;;;6.80;;
9076;SDS011;4574;51.072;17.174;2022-12-07T10:38:49;11.60;;;6.53;;
9076;SDS011;4574;51.072;17.174;2022-12-07T10:41:20;11.17;;;7.10;;
9076;SDS011;4574;51.072;17.174;2022-12-07T10:43:49;9.70;;;7.43;;
9076;SDS011;4574;51.072;17.174;2022-12-07T10:49:23;9.53;;;6.47;;
9076;SDS011;4574;51.072;17.174;2022-12-07T10:52:17;9.13;;;6.17;;
9076;SDS011;4574;51.072;17.174;2022-12-07T10:54:57;9.10;;;6.27;;
9076;SDS011;4574;51.072;17.174;2022-12-07T10:57:39;9.13;;;6.73;;
9076;SDS011;4574;51.072;17.174;2022-12-07T11:00:23;9.47;;;6.60;;
9076;SDS011;4574;51.072;17.174;2022-12-07T11:02:55;8.70;;;6.40;;
9076;SDS011;4574;51.072;17.174;2022-12-07T11:05:48;10.63;;;6.70;;
9076;SDS011;4574;51.072;17.174;2022-12-07T11:08:26;10.27;;;6.60;;
9076;SDS011;4574;51.072;17.174;2022-12-07T11:11:09;11.77;;;6.90;;
9076;SDS011;4574;51.072;17.174;2022-12-07T11:13:44;12.47;;;6.63;;
9076;SDS011;4574;51.072;17.174;2022-12-07T11:16:19;7.50;;;4.30;;
9076;SDS011;4574;51.072;17.174;2022-12-07T11:22:04;3.63;;;2.53;;
9076;SDS011;4574;51.072;17.174;2022-12-07T11:24:40;3.13;;;2.40;;
9076;SDS011;4574;51.072;17.174;2022-12-07T11:27:19;3.83;;;2.53;;
9076;SDS011;4574;51.072;17.174;2022-12-07T11:32:57;3.50;;;3.03;;
9076;SDS011;4574;51.072;17.174;2022-12-07T11:35:40;6.77;;;3.60;;
9076;SDS011;4574;51.072;17.174;2022-12-07T11:38:20;5.43;;;3.80;;
9076;SDS011;4574;51.072;17.174;2022-12-07T11:40:56;4.90;;;3.53;;
9076;SDS011;4574;51.072;17.174;2022-12-07T11:43:50;4.60;;;3.33;;
9076;SDS011;4574;51.072;17.174;2022-12-07T11:46:24;4.40;;;3.53;;
9076;SDS011;4574;51.072;17.174;2022-12-07T11:48:58;3.77;;;3.37;;
9076;SDS011;4574;51.072;17.174;2022-12-07T11:51:33;5.17;;;3.60;;
9076;SDS011;4574;51.072;17.174;2022-12-07T11:54:11;3.40;;;3.10;;
9076;SDS011;4574;51.072;17.174;2022-12-07T11:56:42;4.13;;;3.20;;
9076;SDS011;4574;51.072;17.174;2022-12-07T11:59:16;6.57;;;2.90;;
9076;SDS011;4574;51.072;17.174;2022-12-07T12:01:51;3.70;;;2.60;;
9076;SDS011;4574;51.072;17.174;2022-12-07T12:04:31;4.90;;;2.80;;
9076;SDS011;4574;51.072;17.174;2022-12-07T12:07:06;4.83;;;3.23;;
9076;SDS011;4574;51.072;17.174;2022-12-07T12:09:58;3.23;;;2.80;;
9076;SDS011;4574;51.072;17.174;2022-12-07T12:12:40;2.77;;;2.50;;
9076;SDS011;4574;51.072;17.174;2022-12-07T12:15:49;2.63;;;2.23;;
9076;SDS011;4574;51.072;17.174;2022-12-07T12:18:35;3.37;;;2.80;;
9076;SDS011;4574;51.072;17.174;2022-12-07T12:21:13;3.77;;;2.83;;
9076;SDS011;4574;51.072;17.174;2022-12-07T12:23:45;3.03;;;2.70;;
9076;SDS011;4574;51.072;17.174;2022-12-07T12:26:19;3.23;;;2.93;;
9076;SDS011;4574;51.072;17.174;2022-12-07T12:28:51;3.87;;;3.07;;
9076;SDS011;4574;51.072;17.174;2022-12-07T12:31:36;4.37;;;3.57;;
9076;SDS011;4574;51.072;17.174;2022-12-07T12:46:38;6.33;;;2.93;;
9076;SDS011;4574;51.072;17.174;2022-12-07T12:55:18;3.80;;;2.90;;
9076;SDS011;4574;51.072;17.174;2022-12-07T13:03:57;3.30;;;2.87;;
9076;SDS011;4574;51.072;17.174;2022-12-07T13:06:33;7.73;;;3.20;;
9076;SDS011;4574;51.072;17.174;2022-12-07T13:09:04;4.00;;;2.83;;
9076;SDS011;4574;51.072;17.174;2022-12-07T13:11:48;4.90;;;3.17;;
9076;SDS011;4574;51.072;17.174;2022-12-07T13:23:29;3.97;;;3.23;;
9076;SDS011;4574;51.072;17.174;2022-12-07T13:26:02;4.50;;;3.40;;
9076;SDS011;4574;51.072;17.174;2022-12-07T13:28:43;8.30;;;3.10;;
9076;SDS011;4574;51.072;17.174;2022-12-07T13:31:15;6.37;;;3.33;;
9076;SDS011;4574;51.072;17.174;2022-12-07T13:33:51;5.67;;;3.40;;
9076;SDS011;4574;51.072;17.174;2022-12-07T13:36:22;3.50;;;3.10;;
9076;SDS011;4574;51.072;17.174;2022-12-07T13:38:56;7.37;;;5.70;;
9076;SDS011;4574;51.072;17.174;2022-12-07T13:41:26;14.17;;;10.17;;
9076;SDS011;4574;51.072;17.174;2022-12-07T13:44:00;6.87;;;5.40;;
9076;SDS011;4574;51.072;17.174;2022-12-07T13:46:32;10.37;;;8.80;;
9076;SDS011;4574;51.072;17.174;2022-12-07T13:49:20;6.73;;;5.40;;
9076;SDS011;4574;51.072;17.174;2022-12-07T13:51:52;8.03;;;5.77;;
9076;SDS011;4574;51.072;17.174;2022-12-07T13:54:21;13.47;;;9.80;;
9076;SDS011;4574;51.072;17.174;2022-12-07T13:56:51;5.07;;;3.80;;
9076;SDS011;4574;51.072;17.174;2022-12-07T13:59:21;3.83;;;3.30;;
9076;SDS011;4574;51.072;17.174;2022-12-07T14:01:53;4.90;;;3.27;;
9076;SDS011;4574;51.072;17.174;2022-12-07T14:04:29;4.23;;;3.70;;
9076;SDS011;4574;51.072;17.174;2022-12-07T14:07:15;7.20;;;4.43;;
9076;SDS011;4574;51.072;17.174;2022-12-07T14:09:54;5.03;;;3.70;;
9076;SDS011;4574;51.072;17.174;2022-12-07T14:12:28;5.63;;;3.80;;
9076;SDS011;4574;51.072;17.174;2022-12-07T14:14:57;6.03;;;3.73;;
9076;SDS011;4574;51.072;17.174;2022-12-07T14:17:31;6.30;;;3.73;;
9076;SDS011;4574;51.072;17.174;2022-12-07T14:20:00;7.17;;;3.90;;
9076;SDS011;4574;51.072;17.174;2022-12-07T14:22:31;8.23;;;4.10;;
9076;SDS011;4574;51.072;17.174;2022-12-07T14:27:56;7.70;;;4.20;;
9076;SDS011;4574;51.072;17.174;2022-12-07T14:30:27;5.47;;;3.80;;
9076;SDS011;4574;51.072;17.174;2022-12-07T14:32:57;8.73;;;4.10;;
9076;SDS011;4574;51.072;17.174;2022-12-07T14:35:27;5.73;;;3.67;;
9076;SDS011;4574;51.072;17.174;2022-12-07T14:37:58;6.03;;;3.60;;
9076;SDS011;4574;51.072;17.174;2022-12-07T14:40:27;5.43;;;4.10;;
9076;SDS011;4574;51.072;17.174;2022-12-07T14:42:57;5.57;;;3.57;;
9076;SDS011;4574;51.072;17.174;2022-12-07T14:45:29;6.13;;;4.10;;
9076;SDS011;4574;51.072;17.174;2022-12-07T14:47:58;4.30;;;3.87;;
9076;SDS011;4574;51.072;17.174;2022-12-07T14:50:49;9.60;;;4.10;;
9076;SDS011;4574;51.072;17.174;2022-12-07T14:53:42;7.03;;;4.37;;
9076;SDS011;4574;51.072;17.174;2022-12-07T14:56:20;6.40;;;4.00;;
9076;SDS011;4574;51.072;17.174;2022-12-07T14:58:51;6.47;;;3.80;;
9076;SDS011;4574;51.072;17.174;2022-12-07T15:01:20;7.30;;;4.00;;
9076;SDS011;4574;51.072;17.174;2022-12-07T15:03:48;5.77;;;3.80;;
9076;SDS011;4574;51.072;17.174;2022-12-07T15:06:17;5.73;;;3.70;;
9076;SDS011;4574;51.072;17.174;2022-12-07T15:08:47;7.00;;;4.07;;
9076;SDS011;4574;51.072;17.174;2022-12-07T15:11:16;4.27;;;3.47;;
9076;SDS011;4574;51.072;17.174;2022-12-07T15:13:46;5.43;;;4.03;;
9076;SDS011;4574;51.072;17.174;2022-12-07T15:16:31;6.33;;;3.50;;
9076;SDS011;4574;51.072;17.174;2022-12-07T15:19:21;4.50;;;3.60;;
9076;SDS011;4574;51.072;17.174;2022-12-07T15:21:55;4.93;;;3.77;;
9076;SDS011;4574;51.072;17.174;2022-12-07T15:24:25;5.40;;;3.63;;
9076;SDS011;4574;51.072;17.174;2022-12-07T15:26:54;4.40;;;3.93;;
9076;SDS011;4574;51.072;17.174;2022-12-07T15:29:22;6.17;;;4.07;;
9076;SDS011;4574;51.072;17.174;2022-12-07T15:31:51;8.10;;;5.90;;
9076;SDS011;4574;51.072;17.174;2022-12-07T15:34:23;7.23;;;5.30;;
9076;SDS011;4574;51.072;17.174;2022-12-07T15:36:53;7.50;;;4.87;;
9076;SDS011;4574;51.072;17.174;2022-12-07T15:39:21;5.60;;;3.67;;
9076;SDS011;4574;51.072;17.174;2022-12-07T15:41:51;7.33;;;4.93;;
9076;SDS011;4574;51.072;17.174;2022-12-07T15:44:20;6.90;;;4.73;;
9076;SDS011;4574;51.072;17.174;2022-12-07T15:47:05;7.47;;;4.77;;
9076;SDS011;4574;51.072;17.174;2022-12-07T15:49:34;9.30;;;4.40;;
9076;SDS011;4574;51.072;17.174;2022-12-07T15:52:03;5.87;;;4.50;;
9076;SDS011;4574;51.072;17.174;2022-12-07T15:54:31;6.17;;;4.77;;
9076;SDS011;4574;51.072;17.174;2022-12-07T15:57:01;6.87;;;4.63;;
9076;SDS011;4574;51.072;17.174;2022-12-07T15:59:30;8.33;;;5.77;;
9076;SDS011;4574;51.072;17.174;2022-12-07T16:01:58;6.43;;;4.20;;
9076;SDS011;4574;51.072;17.174;2022-12-07T16:04:27;5.27;;;4.40;;
9076;SDS011;4574;51.072;17.174;2022-12-07T16:06:56;6.20;;;4.43;;
9076;SDS011;4574;51.072;17.174;2022-12-07T16:09:24;6.77;;;4.43;;
9076;SDS011;4574;51.072;17.174;2022-12-07T16:11:53;10.17;;;7.47;;
9076;SDS011;4574;51.072;17.174;2022-12-07T16:14:23;10.80;;;6.90;;
9076;SDS011;4574;51.072;17.174;2022-12-07T16:16:51;10.70;;;6.50;;
9076;SDS011;4574;51.072;17.174;2022-12-07T16:19:20;10.03;;;7.10;;
9076;SDS011;4574;51.072;17.174;2022-12-07T16:21:49;9.27;;;5.97;;